createdAt,value
2023-04-23T00:03:33.574Z,99674.21
2023-04-23T00:08:42.013Z,99674.38
2023-04-23T00:13:47.747Z,99669.96
2023-04-23T00:18:51.474Z,99667.62
2023-04-23T00:23:55.087Z,99662.71
2023-04-23T00:28:58.398Z,99663.48
2023-04-23T00:34:01.913Z,99655.79
2023-04-23T00:39:05.336Z,99656.95
2023-04-23T00:44:13.414Z,99652.48
2023-04-23T00:49:17.655Z,99651.27
2023-04-23T00:54:20.994Z,99650.98
2023-04-23T00:59:28.191Z,99645.94
2023-04-23T01:04:32.845Z,99646.09
2023-04-23T01:09:36.355Z,99639.23
2023-04-23T01:14:40.231Z,99640.79
2023-04-23T01:19:43.900Z,99639.58
2023-04-23T01:24:48.132Z,99639.95
2023-04-23T01:29:52.462Z,99642.36
2023-04-23T01:34:57.211Z,99638.95
2023-04-23T01:40:01.441Z,99630.70
2023-04-23T01:45:05.161Z,99629.81
2023-04-23T01:50:09.848Z,99632.63
2023-04-23T01:55:14.440Z,99628.14
2023-04-23T02:00:18.429Z,99626.65
2023-04-23T02:05:22.000Z,99625.56
2023-04-23T02:10:26.164Z,99622.77
2023-04-23T02:15:40.981Z,99626.93
2023-04-23T02:20:44.826Z,99623.17
2023-04-23T02:25:48.135Z,99622.41
2023-04-23T02:30:51.651Z,99611.22
2023-04-23T02:35:55.164Z,99611.58
2023-04-23T02:40:58.700Z,99612.84
2023-04-23T02:46:08.722Z,99609.63
2023-04-23T02:51:14.004Z,99608.68
2023-04-23T02:56:17.412Z,99602.09
2023-04-23T03:01:21.285Z,99600.14
2023-04-23T03:06:25.266Z,99596.83
2023-04-23T03:11:28.688Z,99593.02
2023-04-23T03:16:32.644Z,99592.98
2023-04-23T03:21:36.123Z,99590.31
2023-04-23T03:26:39.533Z,99587.02
2023-04-23T03:31:42.948Z,99582.55
2023-04-23T03:36:48.923Z,99579.59
2023-04-23T03:41:52.435Z,99574.49
2023-04-23T03:46:55.848Z,99568.71
2023-04-23T03:51:59.577Z,99567.13
2023-04-23T03:57:03.905Z,99567.35
2023-04-23T04:02:07.481Z,99567.74
2023-04-23T04:07:12.376Z,99570.58
2023-04-23T04:12:16.812Z,99571.30
2023-04-23T04:17:20.261Z,99572.65
2023-04-23T04:22:24.455Z,99565.87
2023-04-23T04:27:27.987Z,99564.09
2023-04-23T04:32:32.623Z,99562.72
2023-04-23T04:37:36.506Z,99559.75
2023-04-23T04:42:39.847Z,99557.19
2023-04-23T04:47:43.377Z,99556.87
2023-04-23T04:52:46.987Z,99559.36
2023-04-23T04:57:50.498Z,99554.79
2023-04-23T05:02:54.740Z,99553.62
2023-04-23T05:08:02.550Z,99549.30
2023-04-23T05:13:06.262Z,99548.52
2023-04-23T05:18:11.105Z,99551.73
2023-04-23T05:23:14.565Z,99554.19
2023-04-23T05:28:18.359Z,99558.61
2023-04-23T05:33:21.766Z,99561.88
2023-04-23T05:38:25.559Z,99556.74
2023-04-23T05:43:29.089Z,99548.03
2023-04-23T05:48:32.611Z,99551.20
2023-04-23T05:53:36.120Z,99552.11
2023-04-23T05:58:39.528Z,99548.72
2023-04-23T06:03:45.854Z,99548.41
2023-04-23T06:08:51.266Z,99551.52
2023-04-23T06:13:54.582Z,99551.60
2023-04-23T06:18:58.324Z,99553.34
2023-04-23T06:24:01.831Z,99548.61
2023-04-23T06:29:05.228Z,99547.10
2023-04-23T06:34:08.774Z,99546.17
2023-04-23T06:39:12.256Z,99548.04
2023-04-23T06:44:15.873Z,99548.42
2023-04-23T06:49:21.200Z,99551.64
2023-04-23T06:54:25.161Z,99549.88
2023-04-23T06:59:28.775Z,99545.52
2023-04-23T07:04:33.656Z,99535.98
2023-04-23T07:09:37.046Z,99531.20
2023-04-23T07:14:40.918Z,99527.34
2023-04-23T07:19:44.290Z,99529.73
2023-04-23T07:24:47.818Z,99522.61
2023-04-23T07:29:51.429Z,99521.34
2023-04-23T07:34:56.490Z,99513.65
2023-04-23T07:40:01.075Z,99509.67
2023-04-23T07:45:06.117Z,99507.55
2023-04-23T07:50:10.497Z,99507.82
2023-04-23T07:55:13.857Z,99498.97
2023-04-23T08:00:17.538Z,99498.10
2023-04-23T08:05:21.329Z,99496.98
2023-04-23T08:10:24.669Z,99496.37
2023-04-23T08:15:28.194Z,99495.29
2023-04-23T08:20:32.660Z,99496.77
2023-04-23T08:25:36.035Z,99491.16
2023-04-23T08:30:39.858Z,99493.12
2023-04-23T08:35:43.377Z,99492.39
2023-04-23T08:40:49.142Z,99489.23
2023-04-23T08:45:54.409Z,99488.53
2023-04-23T08:50:59.659Z,99483.05
2023-04-23T08:56:04.093Z,99482.39
2023-04-23T09:01:08.339Z,99471.88
2023-04-23T09:06:12.565Z,99473.37
2023-04-23T09:11:17.518Z,99470.73
2023-04-23T09:16:20.984Z,99464.05
2023-04-23T09:21:24.640Z,99457.90
2023-04-23T09:26:28.361Z,99457.19
2023-04-23T09:31:31.810Z,99453.40
2023-04-23T09:36:37.537Z,99456.63
2023-04-23T09:41:41.570Z,99452.32
2023-04-23T09:46:45.296Z,99445.44
2023-04-23T09:51:50.145Z,99438.39
2023-04-23T09:57:01.227Z,99433.45
2023-04-23T10:02:07.165Z,99426.33
2023-04-23T10:12:40.977Z,99420.58
2023-04-23T10:17:47.045Z,99411.27
2023-04-23T10:22:52.605Z,99407.45
2023-04-23T10:27:58.796Z,99407.34
2023-04-23T10:33:06.045Z,99402.18
2023-04-23T10:39:00.486Z,99393.70
2023-04-23T10:44:07.455Z,99390.14
2023-04-23T10:49:11.003Z,99385.84
2023-04-23T10:54:15.901Z,99379.45
2023-04-23T10:59:23.040Z,99374.88
2023-04-23T11:04:29.564Z,99377.77
2023-04-23T11:09:49.860Z,99375.11
2023-04-23T11:14:59.745Z,99366.34
2023-04-23T11:20:11.929Z,99360.70
2023-04-23T11:25:20.079Z,99363.40
2023-04-23T11:30:26.396Z,99357.05
2023-04-23T11:35:32.310Z,99348.27
2023-04-23T11:40:36.046Z,99346.79
2023-04-23T11:45:39.513Z,99342.34
2023-04-23T11:50:42.967Z,99342.54
2023-04-23T11:55:49.551Z,99336.90
2023-04-23T12:00:59.632Z,99337.34
2023-04-23T12:06:03.026Z,99331.90
2023-04-23T12:11:07.366Z,99333.86
2023-04-23T12:16:11.173Z,99333.30
2023-04-23T12:21:15.206Z,99320.60
2023-04-23T12:26:20.527Z,99327.21
2023-04-23T12:31:27.966Z,99324.27
2023-04-23T12:36:32.192Z,99317.01
2023-04-23T12:41:35.642Z,99314.88
2023-04-23T12:46:39.365Z,99306.81
2023-04-23T12:51:42.859Z,99307.97
2023-04-23T12:56:46.281Z,99306.16
2023-04-23T13:01:51.488Z,99300.71
2023-04-23T13:06:55.253Z,99295.02
2023-04-23T13:12:00.613Z,99288.46
2023-04-23T13:17:04.427Z,99284.26
2023-04-23T13:22:08.046Z,99283.57
2023-04-23T13:27:11.763Z,99275.59
2023-04-23T13:32:16.622Z,99272.84
2023-04-23T13:37:20.129Z,99269.80
2023-04-23T13:42:23.652Z,99270.89
2023-04-23T13:47:31.835Z,99264.02
2023-04-23T13:52:37.652Z,99266.16
2023-04-23T13:57:41.156Z,99263.23
2023-04-23T14:02:44.651Z,99252.77
2023-04-23T14:07:48.697Z,99250.66
2023-04-23T14:12:52.120Z,99251.92
2023-04-23T14:17:56.566Z,99248.13
2023-04-23T14:23:12.046Z,99247.84
2023-04-23T14:28:29.588Z,99256.11
2023-04-23T14:33:33.418Z,99243.09
2023-04-23T14:38:36.832Z,99235.83
2023-04-23T14:43:40.443Z,99243.05
2023-04-23T14:48:43.969Z,99245.33
2023-04-23T14:53:47.266Z,99255.29
2023-04-23T14:58:50.677Z,99252.41
2023-04-23T15:03:54.361Z,99248.85
2023-04-23T15:08:57.911Z,99245.77
2023-04-23T15:14:21.394Z,99247.05
2023-04-23T15:19:25.010Z,99247.23
2023-04-23T15:24:28.589Z,99245.05
2023-04-23T15:29:31.845Z,99244.98
2023-04-23T15:34:35.316Z,99243.44
2023-04-23T15:39:38.845Z,99238.31
2023-04-23T15:44:42.497Z,99228.98
2023-04-23T15:49:46.730Z,99223.99
2023-04-23T15:54:50.244Z,99224.83
2023-04-23T15:59:55.907Z,99221.05
2023-04-23T16:04:59.260Z,99213.33
2023-04-23T16:10:02.832Z,99204.59
2023-04-23T16:15:06.735Z,99199.60
2023-04-23T16:20:10.687Z,99194.25
2023-04-23T16:25:14.105Z,99181.74
2023-04-23T16:30:17.625Z,99176.05
2023-04-23T16:35:21.134Z,99168.62
2023-04-23T16:40:24.551Z,99163.31
2023-04-23T16:45:28.261Z,99153.63
2023-04-23T16:50:31.888Z,99147.36
2023-04-23T16:55:38.468Z,99140.43
2023-04-23T17:00:41.885Z,99127.27
2023-04-23T17:05:49.591Z,99119.18
2023-04-23T17:10:53.716Z,99117.12
2023-04-23T17:15:58.283Z,99110.98
2023-04-23T17:21:01.798Z,99112.20
2023-04-23T17:26:06.464Z,99107.19
2023-04-23T17:31:10.004Z,99101.36
2023-04-23T17:36:13.555Z,99100.61
2023-04-23T17:41:17.901Z,99091.71
2023-04-23T17:46:21.663Z,99090.51
2023-04-23T17:59:49.688Z,99089.31
2023-04-23T18:05:21.605Z,99086.74
2023-04-23T18:10:28.626Z,99083.20
2023-04-23T18:15:31.941Z,99088.42
2023-04-23T18:21:19.341Z,99082.50
2023-04-23T18:26:42.371Z,99082.45
2023-04-23T18:32:27.562Z,99090.21
2023-04-23T18:38:09.238Z,99136.63
2023-04-23T18:43:55.890Z,99147.36
2023-04-23T18:49:32.428Z,99156.59
2023-04-23T18:54:35.511Z,99156.79
2023-04-23T19:00:16.367Z,99158.05
2023-04-23T19:06:02.099Z,99159.54
2023-04-23T19:12:15.779Z,99162.69
2023-04-23T19:17:50.905Z,99163.52
2023-04-23T19:22:53.332Z,99161.25
2023-04-23T19:28:06.247Z,99156.42
2023-04-23T19:33:16.242Z,99163.31
2023-04-23T19:38:27.599Z,99160.55
2023-04-23T19:43:30.004Z,99149.73
2023-04-23T19:48:34.362Z,99155.55
2023-04-23T19:53:45.868Z,99160.00
2023-04-23T19:58:51.097Z,99159.45
2023-04-23T20:04:11.383Z,99155.49
2023-04-23T20:09:24.078Z,99154.48
2023-04-23T20:14:39.329Z,99152.44
2023-04-23T20:19:46.178Z,99147.60
2023-04-23T20:25:01.487Z,99143.52
2023-04-23T20:30:17.175Z,99141.19
2023-04-23T20:35:28.119Z,99143.46
2023-04-23T20:40:46.460Z,99139.10
2023-04-23T20:46:04.166Z,99143.13
2023-04-23T20:51:07.413Z,99139.99
2023-04-23T20:56:14.983Z,99134.89
2023-04-23T21:01:31.282Z,99137.77
2023-04-23T21:06:48.299Z,99143.55
2023-04-23T21:11:50.710Z,99144.16
2023-04-23T21:17:07.508Z,99143.45
2023-04-23T21:22:09.568Z,99142.66
2023-04-23T21:27:20.928Z,99143.64
2023-04-23T21:32:36.301Z,99138.17
2023-04-23T21:37:38.307Z,99132.40
2023-04-23T21:42:47.141Z,99124.63
2023-04-23T21:48:05.576Z,99120.38
2023-04-23T21:53:28.641Z,99119.30
2023-04-23T21:58:40.516Z,99112.40
2023-04-23T22:03:49.826Z,99106.01
2023-04-23T22:09:29.453Z,99097.23
2023-04-23T22:14:31.728Z,99089.89
2023-04-23T22:19:40.097Z,99077.76
2023-04-23T22:27:17.381Z,99082.45
2023-04-23T22:32:20.948Z,99091.10
2023-04-23T22:37:25.017Z,99092.44
2023-04-23T22:42:28.332Z,99096.75
2023-04-23T22:47:32.207Z,99094.93
2023-04-23T22:52:35.787Z,99090.69
2023-04-23T22:57:39.492Z,99087.21
2023-04-23T23:02:42.985Z,99087.05
2023-04-23T23:07:46.521Z,99086.16
2023-04-23T23:12:50.035Z,99083.25
2023-04-23T23:17:54.172Z,99083.55
2023-04-23T23:22:57.892Z,99078.08
2023-04-23T23:28:01.504Z,99071.81
2023-04-23T23:33:05.580Z,99067.89
2023-04-23T23:38:09.357Z,99066.04
2023-04-23T23:43:12.767Z,99060.80
2023-04-23T23:48:16.387Z,99052.80
2023-04-23T23:53:19.801Z,99047.85
2023-04-23T23:58:23.417Z,99046.22
